sensor_id;sensor_type;location;lat;lon;timestamp;P1;durP1;ratioP1;P2;durP2;ratioP2
18532;SDS011;9396;51.510;11.934;2023-01-30T00:02:27;14.80;;;10.33;;
18532;SDS011;9396;51.510;11.934;2023-01-30T00:04:54;18.17;;;11.47;;
18532;SDS011;9396;51.510;11.934;2023-01-30T00:07:21;16.23;;;10.67;;
18532;SDS011;9396;51.510;11.934;2023-01-30T00:09:47;17.17;;;10.77;;
18532;SDS011;9396;51.510;11.934;2023-01-30T00:12:14;16.23;;;10.40;;
18532;SDS011;9396;51.510;11.934;2023-01-30T00:14:40;17.03;;;11.50;;
18532;SDS011;9396;51.510;11.934;2023-01-30T00:17:07;15.10;;;9.97;;
18532;SDS011;9396;51.510;11.934;2023-01-30T00:19:35;17.10;;;11.17;;
18532;SDS011;9396;51.510;11.934;2023-01-30T00:22:01;15.53;;;10.10;;
18532;SDS011;9396;51.510;11.934;2023-01-30T00:24:28;17.53;;;10.37;;
18532;SDS011;9396;51.510;11.934;2023-01-30T00:26:54;14.67;;;10.03;;
18532;SDS011;9396;51.510;11.934;2023-01-30T00:29:21;16.10;;;10.60;;
18532;SDS011;9396;51.510;11.934;2023-01-30T00:31:48;15.53;;;10.07;;
18532;SDS011;9396;51.510;11.934;2023-01-30T00:34:14;18.70;;;11.23;;
18532;SDS011;9396;51.510;11.934;2023-01-30T00:36:42;15.67;;;10.70;;
18532;SDS011;9396;51.510;11.934;2023-01-30T00:39:09;15.33;;;9.97;;
18532;SDS011;9396;51.510;11.934;2023-01-30T00:41:36;17.70;;;10.63;;
18532;SDS011;9396;51.510;11.934;2023-01-30T00:44:19;15.20;;;9.50;;
18532;SDS011;9396;51.510;11.934;2023-01-30T00:47:09;15.83;;;10.73;;
18532;SDS011;9396;51.510;11.934;2023-01-30T00:49:36;14.30;;;9.80;;
18532;SDS011;9396;51.510;11.934;2023-01-30T00:52:04;17.73;;;10.77;;
18532;SDS011;9396;51.510;11.934;2023-01-30T00:54:31;16.17;;;10.10;;
18532;SDS011;9396;51.510;11.934;2023-01-30T00:56:57;16.67;;;10.67;;
18532;SDS011;9396;51.510;11.934;2023-01-30T00:59:24;15.63;;;10.73;;
18532;SDS011;9396;51.510;11.934;2023-01-30T01:01:51;14.47;;;10.07;;
18532;SDS011;9396;51.510;11.934;2023-01-30T01:04:18;16.70;;;11.07;;
18532;SDS011;9396;51.510;11.934;2023-01-30T01:06:44;15.17;;;9.97;;
18532;SDS011;9396;51.510;11.934;2023-01-30T01:09:12;16.60;;;10.53;;
18532;SDS011;9396;51.510;11.934;2023-01-30T01:11:39;14.80;;;9.97;;
18532;SDS011;9396;51.510;11.934;2023-01-30T01:14:05;15.93;;;10.90;;
18532;SDS011;9396;51.510;11.934;2023-01-30T01:16:32;16.37;;;10.40;;
18532;SDS011;9396;51.510;11.934;2023-01-30T01:19:00;14.47;;;10.23;;
18532;SDS011;9396;51.510;11.934;2023-01-30T01:21:27;14.33;;;9.63;;
18532;SDS011;9396;51.510;11.934;2023-01-30T01:23:54;13.33;;;9.40;;
18532;SDS011;9396;51.510;11.934;2023-01-30T01:26:24;12.73;;;8.53;;
18532;SDS011;9396;51.510;11.934;2023-01-30T01:28:52;13.10;;;9.13;;
18532;SDS011;9396;51.510;11.934;2023-01-30T01:31:20;13.97;;;9.47;;
18532;SDS011;9396;51.510;11.934;2023-01-30T01:33:48;13.30;;;9.20;;
18532;SDS011;9396;51.510;11.934;2023-01-30T01:36:14;13.20;;;8.70;;
18532;SDS011;9396;51.510;11.934;2023-01-30T01:38:41;14.53;;;9.27;;
18532;SDS011;9396;51.510;11.934;2023-01-30T01:41:08;16.73;;;9.20;;
18532;SDS011;9396;51.510;11.934;2023-01-30T01:43:36;12.97;;;9.40;;
18532;SDS011;9396;51.510;11.934;2023-01-30T01:46:05;13.60;;;8.83;;
18532;SDS011;9396;51.510;11.934;2023-01-30T01:48:39;15.23;;;8.87;;
18532;SDS011;9396;51.510;11.934;2023-01-30T01:51:10;14.40;;;9.30;;
18532;SDS011;9396;51.510;11.934;2023-01-30T01:53:42;15.23;;;9.73;;
18532;SDS011;9396;51.510;11.934;2023-01-30T01:56:12;16.30;;;10.20;;
18532;SDS011;9396;51.510;11.934;2023-01-30T01:58:44;16.93;;;9.83;;
18532;SDS011;9396;51.510;11.934;2023-01-30T02:01:16;13.73;;;9.77;;
18532;SDS011;9396;51.510;11.934;2023-01-30T02:03:44;13.33;;;8.57;;
18532;SDS011;9396;51.510;11.934;2023-01-30T02:06:14;13.53;;;8.70;;
18532;SDS011;9396;51.510;11.934;2023-01-30T02:08:42;13.97;;;9.07;;
18532;SDS011;9396;51.510;11.934;2023-01-30T02:11:13;14.73;;;8.70;;
18532;SDS011;9396;51.510;11.934;2023-01-30T02:13:47;14.57;;;9.13;;
18532;SDS011;9396;51.510;11.934;2023-01-30T02:16:15;13.07;;;8.40;;
18532;SDS011;9396;51.510;11.934;2023-01-30T02:18:42;15.77;;;8.87;;
18532;SDS011;9396;51.510;11.934;2023-01-30T02:21:25;13.40;;;9.13;;
18532;SDS011;9396;51.510;11.934;2023-01-30T02:27:14;15.30;;;9.00;;
18532;SDS011;9396;51.510;11.934;2023-01-30T02:30:09;13.03;;;9.13;;
18532;SDS011;9396;51.510;11.934;2023-01-30T02:32:55;12.43;;;8.30;;
18532;SDS011;9396;51.510;11.934;2023-01-30T02:35:33;13.53;;;9.10;;
18532;SDS011;9396;51.510;11.934;2023-01-30T02:38:11;15.27;;;8.73;;
18532;SDS011;9396;51.510;11.934;2023-01-30T02:41:10;15.10;;;9.37;;
18532;SDS011;9396;51.510;11.934;2023-01-30T02:43:45;13.53;;;8.37;;
18532;SDS011;9396;51.510;11.934;2023-01-30T02:46:23;14.90;;;9.87;;
18532;SDS011;9396;51.510;11.934;2023-01-30T02:48:59;16.67;;;10.20;;
18532;SDS011;9396;51.510;11.934;2023-01-30T02:51:30;15.37;;;9.07;;
18532;SDS011;9396;51.510;11.934;2023-01-30T02:54:00;14.77;;;9.10;;
18532;SDS011;9396;51.510;11.934;2023-01-30T02:56:26;14.87;;;9.80;;
18532;SDS011;9396;51.510;11.934;2023-01-30T02:58:53;16.00;;;10.17;;
18532;SDS011;9396;51.510;11.934;2023-01-30T03:01:37;18.20;;;10.43;;
18532;SDS011;9396;51.510;11.934;2023-01-30T03:04:27;16.63;;;10.37;;
18532;SDS011;9396;51.510;11.934;2023-01-30T03:07:12;15.20;;;10.07;;
18532;SDS011;9396;51.510;11.934;2023-01-30T03:09:49;14.47;;;9.43;;
18532;SDS011;9396;51.510;11.934;2023-01-30T03:12:25;14.77;;;9.47;;
18532;SDS011;9396;51.510;11.934;2023-01-30T03:15:02;13.63;;;9.03;;
18532;SDS011;9396;51.510;11.934;2023-01-30T03:17:33;17.67;;;10.27;;
18532;SDS011;9396;51.510;11.934;2023-01-30T03:20:03;16.00;;;10.57;;
18532;SDS011;9396;51.510;11.934;2023-01-30T03:22:30;16.73;;;10.17;;
18532;SDS011;9396;51.510;11.934;2023-01-30T03:24:57;15.00;;;9.70;;
18532;SDS011;9396;51.510;11.934;2023-01-30T03:27:24;16.00;;;10.70;;
18532;SDS011;9396;51.510;11.934;2023-01-30T03:29:50;17.07;;;10.43;;
18532;SDS011;9396;51.510;11.934;2023-01-30T03:32:17;15.23;;;9.67;;
18532;SDS011;9396;51.510;11.934;2023-01-30T03:34:44;14.80;;;10.03;;
18532;SDS011;9396;51.510;11.934;2023-01-30T03:37:12;17.70;;;10.07;;
18532;SDS011;9396;51.510;11.934;2023-01-30T03:39:38;15.37;;;9.93;;
18532;SDS011;9396;51.510;11.934;2023-01-30T03:42:05;15.93;;;10.07;;
18532;SDS011;9396;51.510;11.934;2023-01-30T03:44:32;17.80;;;10.17;;
18532;SDS011;9396;51.510;11.934;2023-01-30T03:46:59;17.23;;;10.00;;
18532;SDS011;9396;51.510;11.934;2023-01-30T03:49:25;19.07;;;10.63;;
18532;SDS011;9396;51.510;11.934;2023-01-30T03:51:52;16.60;;;10.13;;
18532;SDS011;9396;51.510;11.934;2023-01-30T03:54:20;17.13;;;9.80;;
18532;SDS011;9396;51.510;11.934;2023-01-30T03:56:46;18.03;;;10.13;;
18532;SDS011;9396;51.510;11.934;2023-01-30T03:59:13;18.07;;;11.53;;
18532;SDS011;9396;51.510;11.934;2023-01-30T04:01:40;19.43;;;10.70;;
18532;SDS011;9396;51.510;11.934;2023-01-30T04:04:06;18.07;;;10.50;;
18532;SDS011;9396;51.510;11.934;2023-01-30T04:06:33;17.30;;;11.13;;
18532;SDS011;9396;51.510;11.934;2023-01-30T04:08:59;17.47;;;10.60;;
18532;SDS011;9396;51.510;11.934;2023-01-30T04:11:27;17.57;;;10.67;;
18532;SDS011;9396;51.510;11.934;2023-01-30T04:13:54;18.77;;;11.17;;
18532;SDS011;9396;51.510;11.934;2023-01-30T04:16:22;19.17;;;11.07;;
18532;SDS011;9396;51.510;11.934;2023-01-30T04:18:50;20.87;;;11.30;;
18532;SDS011;9396;51.510;11.934;2023-01-30T04:21:17;18.93;;;10.87;;
18532;SDS011;9396;51.510;11.934;2023-01-30T04:23:44;20.20;;;11.43;;
18532;SDS011;9396;51.510;11.934;2023-01-30T04:26:11;18.70;;;10.67;;
18532;SDS011;9396;51.510;11.934;2023-01-30T04:28:40;19.93;;;11.83;;
18532;SDS011;9396;51.510;11.934;2023-01-30T04:31:06;16.97;;;11.83;;
18532;SDS011;9396;51.510;11.934;2023-01-30T04:33:33;17.70;;;10.70;;
18532;SDS011;9396;51.510;11.934;2023-01-30T04:36:00;17.30;;;10.07;;
18532;SDS011;9396;51.510;11.934;2023-01-30T04:38:29;17.27;;;11.40;;
18532;SDS011;9396;51.510;11.934;2023-01-30T04:40:57;21.53;;;12.33;;
18532;SDS011;9396;51.510;11.934;2023-01-30T04:43:24;20.20;;;11.30;;
18532;SDS011;9396;51.510;11.934;2023-01-30T04:45:53;18.87;;;11.60;;
18532;SDS011;9396;51.510;11.934;2023-01-30T04:48:21;20.37;;;12.87;;
18532;SDS011;9396;51.510;11.934;2023-01-30T04:50:49;19.10;;;12.07;;
18532;SDS011;9396;51.510;11.934;2023-01-30T04:53:17;17.53;;;10.70;;
18532;SDS011;9396;51.510;11.934;2023-01-30T04:55:45;19.17;;;11.40;;
18532;SDS011;9396;51.510;11.934;2023-01-30T04:58:12;19.57;;;11.80;;
18532;SDS011;9396;51.510;11.934;2023-01-30T05:00:39;21.47;;;13.17;;
18532;SDS011;9396;51.510;11.934;2023-01-30T05:03:07;18.10;;;11.60;;
18532;SDS011;9396;51.510;11.934;2023-01-30T05:05:33;20.30;;;12.20;;
18532;SDS011;9396;51.510;11.934;2023-01-30T05:08:00;20.57;;;12.13;;
18532;SDS011;9396;51.510;11.934;2023-01-30T05:10:27;18.93;;;12.03;;
18532;SDS011;9396;51.510;11.934;2023-01-30T05:12:54;20.67;;;11.67;;
18532;SDS011;9396;51.510;11.934;2023-01-30T05:15:20;21.60;;;12.50;;
18532;SDS011;9396;51.510;11.934;2023-01-30T05:17:47;20.83;;;13.10;;
18532;SDS011;9396;51.510;11.934;2023-01-30T05:20:15;20.60;;;12.63;;
18532;SDS011;9396;51.510;11.934;2023-01-30T05:22:42;20.33;;;11.70;;
18532;SDS011;9396;51.510;11.934;2023-01-30T05:25:08;22.33;;;12.30;;
18532;SDS011;9396;51.510;11.934;2023-01-30T05:27:35;19.80;;;11.27;;
18532;SDS011;9396;51.510;11.934;2023-01-30T05:30:02;19.53;;;12.30;;
18532;SDS011;9396;51.510;11.934;2023-01-30T05:32:29;18.63;;;10.73;;
18532;SDS011;9396;51.510;11.934;2023-01-30T05:34:56;19.07;;;11.93;;
18532;SDS011;9396;51.510;11.934;2023-01-30T05:37:24;15.53;;;10.37;;
18532;SDS011;9396;51.510;11.934;2023-01-30T05:39:50;17.87;;;10.97;;
18532;SDS011;9396;51.510;11.934;2023-01-30T05:42:17;17.73;;;10.67;;
18532;SDS011;9396;51.510;11.934;2023-01-30T05:44:44;18.63;;;11.20;;
18532;SDS011;9396;51.510;11.934;2023-01-30T05:47:10;17.23;;;10.93;;
18532;SDS011;9396;51.510;11.934;2023-01-30T05:49:37;17.20;;;11.00;;
18532;SDS011;9396;51.510;11.934;2023-01-30T05:52:04;19.40;;;12.13;;
18532;SDS011;9396;51.510;11.934;2023-01-30T05:54:32;17.80;;;11.47;;
18532;SDS011;9396;51.510;11.934;2023-01-30T05:56:59;20.13;;;11.50;;
18532;SDS011;9396;51.510;11.934;2023-01-30T05:59:26;17.73;;;11.03;;
18532;SDS011;9396;51.510;11.934;2023-01-30T06:01:52;16.00;;;10.77;;
18532;SDS011;9396;51.510;11.934;2023-01-30T06:04:19;17.53;;;10.77;;
18532;SDS011;9396;51.510;11.934;2023-01-30T06:06:47;18.77;;;11.13;;
18532;SDS011;9396;51.510;11.934;2023-01-30T06:09:14;15.10;;;9.27;;
18532;SDS011;9396;51.510;11.934;2023-01-30T06:11:43;15.83;;;9.93;;
18532;SDS011;9396;51.510;11.934;2023-01-30T06:14:09;14.57;;;9.33;;
18532;SDS011;9396;51.510;11.934;2023-01-30T06:16:36;16.20;;;9.37;;
18532;SDS011;9396;51.510;11.934;2023-01-30T06:19:02;16.30;;;9.90;;
18532;SDS011;9396;51.510;11.934;2023-01-30T06:21:29;13.93;;;9.80;;
18532;SDS011;9396;51.510;11.934;2023-01-30T06:23:56;14.23;;;10.00;;
18532;SDS011;9396;51.510;11.934;2023-01-30T06:26:22;16.30;;;10.00;;
18532;SDS011;9396;51.510;11.934;2023-01-30T06:28:50;19.97;;;10.23;;
18532;SDS011;9396;51.510;11.934;2023-01-30T06:31:17;16.70;;;10.43;;
18532;SDS011;9396;51.510;11.934;2023-01-30T06:33:44;18.33;;;10.10;;
18532;SDS011;9396;51.510;11.934;2023-01-30T06:36:10;15.03;;;8.93;;
18532;SDS011;9396;51.510;11.934;2023-01-30T06:38:37;13.53;;;9.17;;
18532;SDS011;9396;51.510;11.934;2023-01-30T06:41:04;14.53;;;9.73;;
18532;SDS011;9396;51.510;11.934;2023-01-30T06:43:31;16.60;;;10.20;;
18532;SDS011;9396;51.510;11.934;2023-01-30T06:45:59;15.77;;;9.07;;
18532;SDS011;9396;51.510;11.934;2023-01-30T06:48:25;14.73;;;8.53;;
18532;SDS011;9396;51.510;11.934;2023-01-30T06:50:52;12.20;;;8.07;;
18532;SDS011;9396;51.510;11.934;2023-01-30T06:53:20;13.80;;;8.23;;
18532;SDS011;9396;51.510;11.934;2023-01-30T06:55:49;13.37;;;8.90;;
18532;SDS011;9396;51.510;11.934;2023-01-30T06:58:16;13.27;;;8.20;;
18532;SDS011;9396;51.510;11.934;2023-01-30T07:00:42;14.03;;;9.13;;
18532;SDS011;9396;51.510;11.934;2023-01-30T07:03:10;11.40;;;8.20;;
18532;SDS011;9396;51.510;11.934;2023-01-30T07:05:39;14.50;;;8.53;;
18532;SDS011;9396;51.510;11.934;2023-01-30T07:08:06;11.83;;;8.23;;
18532;SDS011;9396;51.510;11.934;2023-01-30T07:10:32;11.93;;;8.10;;
18532;SDS011;9396;51.510;11.934;2023-01-30T07:13:00;11.83;;;7.47;;
18532;SDS011;9396;51.510;11.934;2023-01-30T07:15:26;14.60;;;8.43;;
18532;SDS011;9396;51.510;11.934;2023-01-30T07:17:53;12.90;;;8.43;;
18532;SDS011;9396;51.510;11.934;2023-01-30T07:20:21;12.73;;;7.73;;
18532;SDS011;9396;51.510;11.934;2023-01-30T07:22:48;11.53;;;7.57;;
18532;SDS011;9396;51.510;11.934;2023-01-30T07:25:15;13.00;;;8.53;;
18532;SDS011;9396;51.510;11.934;2023-01-30T07:27:42;12.53;;;8.00;;
18532;SDS011;9396;51.510;11.934;2023-01-30T07:30:09;11.80;;;7.50;;
18532;SDS011;9396;51.510;11.934;2023-01-30T07:32:37;12.47;;;7.47;;
18532;SDS011;9396;51.510;11.934;2023-01-30T07:35:03;10.93;;;7.37;;
18532;SDS011;9396;51.510;11.934;2023-01-30T07:37:32;11.97;;;8.00;;
18532;SDS011;9396;51.510;11.934;2023-01-30T07:39:58;11.60;;;7.17;;
18532;SDS011;9396;51.510;11.934;2023-01-30T07:42:25;9.40;;;7.03;;
18532;SDS011;9396;51.510;11.934;2023-01-30T07:44:52;10.00;;;7.10;;
18532;SDS011;9396;51.510;11.934;2023-01-30T07:47:18;8.97;;;5.63;;
18532;SDS011;9396;51.510;11.934;2023-01-30T07:49:45;10.43;;;7.03;;
18532;SDS011;9396;51.510;11.934;2023-01-30T07:52:11;11.93;;;7.43;;
18532;SDS011;9396;51.510;11.934;2023-01-30T07:54:40;11.73;;;6.20;;
18532;SDS011;9396;51.510;11.934;2023-01-30T07:57:06;9.87;;;6.87;;
18532;SDS011;9396;51.510;11.934;2023-01-30T07:59:33;8.73;;;5.73;;
18532;SDS011;9396;51.510;11.934;2023-01-30T08:02:00;13.10;;;6.60;;
18532;SDS011;9396;51.510;11.934;2023-01-30T08:04:26;10.17;;;6.47;;
18532;SDS011;9396;51.510;11.934;2023-01-30T08:06:53;9.50;;;6.13;;
18532;SDS011;9396;51.510;11.934;2023-01-30T08:09:19;9.73;;;6.40;;
18532;SDS011;9396;51.510;11.934;2023-01-30T08:11:47;9.73;;;6.00;;
18532;SDS011;9396;51.510;11.934;2023-01-30T08:14:14;13.13;;;5.77;;
18532;SDS011;9396;51.510;11.934;2023-01-30T08:16:41;8.43;;;5.73;;
18532;SDS011;9396;51.510;11.934;2023-01-30T08:19:07;9.53;;;6.13;;
18532;SDS011;9396;51.510;11.934;2023-01-30T08:21:34;9.43;;;6.40;;
18532;SDS011;9396;51.510;11.934;2023-01-30T08:24:00;9.13;;;6.13;;
18532;SDS011;9396;51.510;11.934;2023-01-30T08:26:27;12.53;;;5.37;;
18532;SDS011;9396;51.510;11.934;2023-01-30T08:28:55;15.90;;;6.13;;
18532;SDS011;9396;51.510;11.934;2023-01-30T08:31:22;19.80;;;6.40;;
18532;SDS011;9396;51.510;11.934;2023-01-30T08:33:48;9.77;;;6.27;;
18532;SDS011;9396;51.510;11.934;2023-01-30T08:36:15;17.53;;;5.43;;
18532;SDS011;9396;51.510;11.934;2023-01-30T08:38:42;14.67;;;6.10;;
18532;SDS011;9396;51.510;11.934;2023-01-30T08:41:08;20.20;;;6.03;;
18532;SDS011;9396;51.510;11.934;2023-01-30T08:43:35;9.87;;;4.40;;
18532;SDS011;9396;51.510;11.934;2023-01-30T08:46:03;6.40;;;4.67;;
18532;SDS011;9396;51.510;11.934;2023-01-30T08:48:30;7.90;;;4.70;;
18532;SDS011;9396;51.510;11.934;2023-01-30T08:50:57;16.00;;;4.97;;
18532;SDS011;9396;51.510;11.934;2023-01-30T08:53:24;8.80;;;4.87;;
18532;SDS011;9396;51.510;11.934;2023-01-30T08:55:51;5.93;;;4.33;;
18532;SDS011;9396;51.510;11.934;2023-01-30T08:58:18;6.97;;;4.73;;
18532;SDS011;9396;51.510;11.934;2023-01-30T09:00:45;9.80;;;4.47;;
18532;SDS011;9396;51.510;11.934;2023-01-30T09:03:14;7.57;;;4.20;;
18532;SDS011;9396;51.510;11.934;2023-01-30T09:05:42;5.77;;;4.40;;
18532;SDS011;9396;51.510;11.934;2023-01-30T09:08:09;5.40;;;3.90;;
18532;SDS011;9396;51.510;11.934;2023-01-30T09:10:36;8.10;;;4.80;;
18532;SDS011;9396;51.510;11.934;2023-01-30T09:13:03;9.00;;;4.77;;
18532;SDS011;9396;51.510;11.934;2023-01-30T09:15:30;6.07;;;3.63;;
18532;SDS011;9396;51.510;11.934;2023-01-30T09:17:57;5.73;;;3.57;;
18532;SDS011;9396;51.510;11.934;2023-01-30T09:20:25;5.57;;;4.50;;
18532;SDS011;9396;51.510;11.934;2023-01-30T09:22:52;6.87;;;4.07;;
18532;SDS011;9396;51.510;11.934;2023-01-30T09:25:18;6.10;;;4.40;;
18532;SDS011;9396;51.510;11.934;2023-01-30T09:27:46;6.23;;;4.23;;
18532;SDS011;9396;51.510;11.934;2023-01-30T09:30:14;7.33;;;4.20;;
18532;SDS011;9396;51.510;11.934;2023-01-30T09:32:41;8.60;;;4.30;;
18532;SDS011;9396;51.510;11.934;2023-01-30T09:35:08;5.87;;;3.97;;
18532;SDS011;9396;51.510;11.934;2023-01-30T09:37:36;8.13;;;3.70;;
18532;SDS011;9396;51.510;11.934;2023-01-30T09:40:03;6.23;;;4.00;;
18532;SDS011;9396;51.510;11.934;2023-01-30T09:45:45;7.63;;;3.20;;
18532;SDS011;9396;51.510;11.934;2023-01-30T09:48:24;5.60;;;3.57;;
18532;SDS011;9396;51.510;11.934;2023-01-30T09:53:52;5.17;;;3.50;;
18532;SDS011;9396;51.510;11.934;2023-01-30T09:56:27;4.13;;;3.00;;
18532;SDS011;9396;51.510;11.934;2023-01-30T09:58:55;6.97;;;3.60;;
18532;SDS011;9396;51.510;11.934;2023-01-30T10:01:25;3.90;;;2.97;;
18532;SDS011;9396;51.510;11.934;2023-01-30T10:04:04;4.83;;;3.10;;
18532;SDS011;9396;51.510;11.934;2023-01-30T10:06:39;4.30;;;2.90;;
18532;SDS011;9396;51.510;11.934;2023-01-30T10:09:15;6.37;;;3.40;;
18532;SDS011;9396;51.510;11.934;2023-01-30T10:11:55;4.77;;;3.40;;
18532;SDS011;9396;51.510;11.934;2023-01-30T10:14:35;5.30;;;3.17;;
18532;SDS011;9396;51.510;11.934;2023-01-30T10:17:19;4.47;;;3.10;;
18532;SDS011;9396;51.510;11.934;2023-01-30T10:22:49;3.90;;;2.67;;
18532;SDS011;9396;51.510;11.934;2023-01-30T10:25:31;4.80;;;3.00;;
18532;SDS011;9396;51.510;11.934;2023-01-30T10:28:03;5.47;;;2.87;;
18532;SDS011;9396;51.510;11.934;2023-01-30T10:30:35;4.47;;;2.40;;
18532;SDS011;9396;51.510;11.934;2023-01-30T10:33:02;5.90;;;2.47;;
18532;SDS011;9396;51.510;11.934;2023-01-30T10:35:34;5.30;;;2.57;;
18532;SDS011;9396;51.510;11.934;2023-01-30T10:38:03;2.73;;;2.20;;
18532;SDS011;9396;51.510;11.934;2023-01-30T10:40:40;2.77;;;2.30;;
18532;SDS011;9396;51.510;11.934;2023-01-30T10:43:12;2.97;;;2.47;;
18532;SDS011;9396;51.510;11.934;2023-01-30T10:45:47;4.60;;;2.33;;
18532;SDS011;9396;51.510;11.934;2023-01-30T10:48:23;2.77;;;2.20;;
18532;SDS011;9396;51.510;11.934;2023-01-30T10:51:04;3.37;;;2.10;;
18532;SDS011;9396;51.510;11.934;2023-01-30T10:53:38;3.13;;;2.33;;
18532;SDS011;9396;51.510;11.934;2023-01-30T10:56:13;3.50;;;2.67;;
18532;SDS011;9396;51.510;11.934;2023-01-30T10:58:46;3.17;;;2.27;;
18532;SDS011;9396;51.510;11.934;2023-01-30T11:01:19;3.13;;;2.13;;
18532;SDS011;9396;51.510;11.934;2023-01-30T11:03:51;2.77;;;2.30;;
18532;SDS011;9396;51.510;11.934;2023-01-30T11:06:22;3.10;;;2.17;;
18532;SDS011;9396;51.510;11.934;2023-01-30T11:08:50;2.97;;;1.90;;
18532;SDS011;9396;51.510;11.934;2023-01-30T11:11:23;2.83;;;1.93;;
18532;SDS011;9396;51.510;11.934;2023-01-30T11:13:59;3.53;;;2.10;;
18532;SDS011;9396;51.510;11.934;2023-01-30T11:16:30;2.70;;;1.90;;
18532;SDS011;9396;51.510;11.934;2023-01-30T11:18:59;3.93;;;2.00;;
18532;SDS011;9396;51.510;11.934;2023-01-30T11:21:30;4.07;;;2.13;;
18532;SDS011;9396;51.510;11.934;2023-01-30T11:24:02;3.60;;;2.17;;
18532;SDS011;9396;51.510;11.934;2023-01-30T11:26:33;2.77;;;2.00;;
18532;SDS011;9396;51.510;11.934;2023-01-30T11:29:13;2.47;;;2.20;;
18532;SDS011;9396;51.510;11.934;2023-01-30T11:31:41;3.87;;;1.90;;
18532;SDS011;9396;51.510;11.934;2023-01-30T11:34:11;4.07;;;2.10;;
18532;SDS011;9396;51.510;11.934;2023-01-30T11:36:40;2.57;;;1.87;;
18532;SDS011;9396;51.510;11.934;2023-01-30T11:39:17;2.17;;;1.87;;
18532;SDS011;9396;51.510;11.934;2023-01-30T11:41:55;2.50;;;1.60;;
18532;SDS011;9396;51.510;11.934;2023-01-30T11:44:26;3.07;;;1.63;;
18532;SDS011;9396;51.510;11.934;2023-01-30T11:46:53;3.43;;;1.80;;
18532;SDS011;9396;51.510;11.934;2023-01-30T11:49:24;2.43;;;1.67;;
18532;SDS011;9396;51.510;11.934;2023-01-30T11:51:57;2.23;;;1.30;;
18532;SDS011;9396;51.510;11.934;2023-01-30T11:54:27;2.83;;;1.40;;
18532;SDS011;9396;51.510;11.934;2023-01-30T11:56:57;1.70;;;1.50;;
18532;SDS011;9396;51.510;11.934;2023-01-30T11:59:27;3.67;;;1.37;;
18532;SDS011;9396;51.510;11.934;2023-01-30T12:02:11;2.20;;;1.37;;
18532;SDS011;9396;51.510;11.934;2023-01-30T12:04:43;3.67;;;1.27;;
18532;SDS011;9396;51.510;11.934;2023-01-30T12:07:15;4.13;;;1.37;;
18532;SDS011;9396;51.510;11.934;2023-01-30T12:09:45;5.20;;;2.23;;
18532;SDS011;9396;51.510;11.934;2023-01-30T12:12:27;3.97;;;1.57;;
18532;SDS011;9396;51.510;11.934;2023-01-30T12:15:04;5.67;;;1.50;;
18532;SDS011;9396;51.510;11.934;2023-01-30T12:17:41;2.87;;;1.37;;
18532;SDS011;9396;51.510;11.934;2023-01-30T12:20:16;3.87;;;1.30;;
18532;SDS011;9396;51.510;11.934;2023-01-30T12:22:51;2.90;;;1.40;;
18532;SDS011;9396;51.510;11.934;2023-01-30T12:25:28;4.77;;;1.60;;
18532;SDS011;9396;51.510;11.934;2023-01-30T12:28:02;7.40;;;1.90;;
18532;SDS011;9396;51.510;11.934;2023-01-30T12:30:37;4.70;;;1.43;;
18532;SDS011;9396;51.510;11.934;2023-01-30T12:33:09;3.87;;;1.43;;
18532;SDS011;9396;51.510;11.934;2023-01-30T12:35:44;5.03;;;1.40;;
18532;SDS011;9396;51.510;11.934;2023-01-30T12:38:21;4.60;;;1.53;;
18532;SDS011;9396;51.510;11.934;2023-01-30T12:40:57;5.47;;;1.37;;
18532;SDS011;9396;51.510;11.934;2023-01-30T12:43:40;7.83;;;1.60;;
18532;SDS011;9396;51.510;11.934;2023-01-30T12:46:24;3.57;;;1.43;;
18532;SDS011;9396;51.510;11.934;2023-01-30T12:49:17;4.30;;;1.27;;
18532;SDS011;9396;51.510;11.934;2023-01-30T12:52:10;6.03;;;1.40;;
18532;SDS011;9396;51.510;11.934;2023-01-30T12:54:53;4.37;;;1.37;;
18532;SDS011;9396;51.510;11.934;2023-01-30T12:57:26;2.97;;;1.37;;
18532;SDS011;9396;51.510;11.934;2023-01-30T13:00:07;5.90;;;1.73;;
18532;SDS011;9396;51.510;11.934;2023-01-30T13:02:57;4.37;;;1.53;;
18532;SDS011;9396;51.510;11.934;2023-01-30T13:05:36;2.53;;;1.00;;
18532;SDS011;9396;51.510;11.934;2023-01-30T13:08:14;6.90;;;1.30;;
18532;SDS011;9396;51.510;11.934;2023-01-30T13:10:58;4.93;;;1.20;;
18532;SDS011;9396;51.510;11.934;2023-01-30T13:13:35;4.00;;;1.20;;
18532;SDS011;9396;51.510;11.934;2023-01-30T13:16:13;5.17;;;1.33;;
18532;SDS011;9396;51.510;11.934;2023-01-30T13:18:49;10.33;;;1.60;;
18532;SDS011;9396;51.510;11.934;2023-01-30T13:21:22;7.67;;;1.17;;
18532;SDS011;9396;51.510;11.934;2023-01-30T13:23:59;4.50;;;0.97;;
18532;SDS011;9396;51.510;11.934;2023-01-30T13:26:33;5.97;;;1.13;;
18532;SDS011;9396;51.510;11.934;2023-01-30T13:29:03;6.87;;;1.60;;
18532;SDS011;9396;51.510;11.934;2023-01-30T13:31:38;6.03;;;1.30;;
18532;SDS011;9396;51.510;11.934;2023-01-30T13:34:12;4.30;;;1.00;;
18532;SDS011;9396;51.510;11.934;2023-01-30T13:36:46;5.37;;;1.13;;
18532;SDS011;9396;51.510;11.934;2023-01-30T13:39:21;7.67;;;1.73;;
18532;SDS011;9396;51.510;11.934;2023-01-30T13:41:54;5.33;;;1.23;;
18532;SDS011;9396;51.510;11.934;2023-01-30T13:44:23;3.50;;;1.33;;
18532;SDS011;9396;51.510;11.934;2023-01-30T13:46:56;4.67;;;0.97;;
18532;SDS011;9396;51.510;11.934;2023-01-30T13:49:34;5.20;;;1.10;;
18532;SDS011;9396;51.510;11.934;2023-01-30T13:52:09;6.73;;;1.33;;
18532;SDS011;9396;51.510;11.934;2023-01-30T13:54:48;2.90;;;0.90;;
18532;SDS011;9396;51.510;11.934;2023-01-30T13:57:27;9.67;;;1.87;;
18532;SDS011;9396;51.510;11.934;2023-01-30T14:00:15;7.83;;;1.77;;
18532;SDS011;9396;51.510;11.934;2023-01-30T14:08:51;7.10;;;1.43;;
18532;SDS011;9396;51.510;11.934;2023-01-30T14:11:31;3.77;;;1.30;;
18532;SDS011;9396;51.510;11.934;2023-01-30T14:14:02;6.37;;;1.27;;
18532;SDS011;9396;51.510;11.934;2023-01-30T14:16:41;7.90;;;2.40;;
18532;SDS011;9396;51.510;11.934;2023-01-30T14:19:27;8.07;;;1.70;;
18532;SDS011;9396;51.510;11.934;2023-01-30T14:21:58;7.50;;;1.10;;
18532;SDS011;9396;51.510;11.934;2023-01-30T14:24:27;7.43;;;1.57;;
18532;SDS011;9396;51.510;11.934;2023-01-30T14:26:59;6.87;;;1.67;;
18532;SDS011;9396;51.510;11.934;2023-01-30T14:29:53;8.17;;;1.83;;
18532;SDS011;9396;51.510;11.934;2023-01-30T14:32:34;11.37;;;1.70;;
18532;SDS011;9396;51.510;11.934;2023-01-30T14:38:09;6.80;;;2.30;;
18532;SDS011;9396;51.510;11.934;2023-01-30T14:40:38;8.10;;;1.77;;
18532;SDS011;9396;51.510;11.934;2023-01-30T14:46:07;11.17;;;1.70;;
18532;SDS011;9396;51.510;11.934;2023-01-30T14:48:58;8.13;;;1.80;;
18532;SDS011;9396;51.510;11.934;2023-01-30T14:51:32;4.07;;;1.57;;
18532;SDS011;9396;51.510;11.934;2023-01-30T14:54:01;8.93;;;1.57;;
18532;SDS011;9396;51.510;11.934;2023-01-30T14:56:39;3.47;;;1.27;;
18532;SDS011;9396;51.510;11.934;2023-01-30T14:59:19;4.97;;;1.60;;
18532;SDS011;9396;51.510;11.934;2023-01-30T15:01:53;4.70;;;1.07;;
18532;SDS011;9396;51.510;11.934;2023-01-30T15:04:22;4.70;;;1.20;;
18532;SDS011;9396;51.510;11.934;2023-01-30T15:06:52;2.43;;;1.30;;
18532;SDS011;9396;51.510;11.934;2023-01-30T15:09:20;4.47;;;1.43;;
18532;SDS011;9396;51.510;11.934;2023-01-30T15:11:51;6.90;;;1.40;;
18532;SDS011;9396;51.510;11.934;2023-01-30T15:14:26;3.40;;;1.20;;
18532;SDS011;9396;51.510;11.934;2023-01-30T15:17:03;3.23;;;1.37;;
18532;SDS011;9396;51.510;11.934;2023-01-30T15:19:47;2.13;;;0.97;;
18532;SDS011;9396;51.510;11.934;2023-01-30T15:22:28;4.90;;;1.30;;